Terminal Aerodrome Forecast
Issued by NWS Green Bay, WI

Home | Current Version | Previous Version | Graphics & Text | Print | Product List | Glossary On
Versions: 1 2 3 4 5 6 7 8 9 10 11 12 13 14 15 16 17 18 19 20 21 22 23 24 25 26 27 28 29 30
309
FTUS43 KGRB 280538
TAFGRB
TAF
KGRB 280538Z 2806/2906 36006KT P6SM VCSH SCT020 OVC035
      TEMPO 2806/2808 3SM TSRA BR BKN020CB
     FM280800 03007KT P6SM SCT012 OVC035
      TEMPO 2808/2812 4SM -SHRA BR BKN012
     FM281400 05009KT P6SM VCSH BKN035
     FM282000 04010KT P6SM BKN040
     FM290100 03007KT P6SM SCT040 BKN120=

USA.gov is the U.S. government's official web portal to all federal, state and local government web resources and services.